Celtic Crusader — 2GGS3 — position and weather

sailwx.info

Track history (hours):
 
Tides and Currents Weather Stations Pressure Air Temp Water Temp Dewpoint Dewpoint Depression Visibility Wind Speed Wind Dir Waves Ship Positions

Celtic Crusader

Last reported at 2018-Jan-20 19:42 UTC. Time now 2018-Jan-21 20:49 UTC.
Position N 50°25' W 005°53'.

Length 88 m; draft 4.1 m.

Type: Cargo ship. MMSI: 235097248.

Date/timePositionNaut miles runAvg speedWind from/ knotsBaromVisibWave heightAir tempDewpointWater temp
2018-Jan-20 19:42N 50°25' W 005°53'2 5.4
2018-Jan-20 19:17N 50°26' W 005°50'1 5.2
2018-Jan-20 19:00N 50°27' W 005°48'2 5.0
2018-Jan-20 18:30N 50°29' W 005°45'3 4.7
2018-Jan-20 17:58N 50°30' W 005°42'2 4.4
2018-Jan-20 17:28N 50°32' W 005°40'2 4.0
2018-Jan-20 17:00N 50°33' W 005°37'2 4.3
2018-Jan-20 16:30N 50°34' W 005°35'2 4.3
2018-Jan-20 16:00N 50°36' W 005°32'2 4.7
2018-Jan-20 15:29N 50°37' W 005°29'3 4.6
2018-Jan-20 14:49N 50°39' W 005°25'1 4.6
2018-Jan-20 14:30N 50°40' W 005°24'2 4.9
2018-Jan-20 14:00N 50°41' W 005°20'3 5.6
2018-Jan-20 13:30N 50°43' W 005°17'3 6.0
2018-Jan-20 13:00N 50°45' W 005°14'3 6.5
2018-Jan-20 12:30N 50°47' W 005°10'3 6.9
2018-Jan-20 12:00N 50°50' W 005°05'4 7.5
2018-Jan-20 11:30N 50°52' W 005°01'4 8.5
2018-Jan-20 11:00N 50°55' W 004°56'5 9.0
2018-Jan-20 10:30N 50°58' W 004°50'5 9.3
2018-Jan-20 10:00N 51°01' W 004°44'5 9.8
2018-Jan-20 09:30N 51°04' W 004°38'5 9.4
2018-Jan-20 09:00N 51°05' W 004°31'610.0
2018-Jan-20 08:24N 51°05' W 004°22'410.0
2018-Jan-20 08:00N 51°05' W 004°15'4 0.1
2018-Jan-18 17:37N 51°02' W 004°12'2 4.0
2018-Jan-18 17:13N 51°04' W 004°12'2 7.6
2018-Jan-18 16:55N 51°05' W 004°15'1 2.9
2018-Jan-18 16:29N 51°06' W 004°17'2 4.5
2018-Jan-18 16:00N 51°07' W 004°20'1 1.5
2018-Jan-18 15:29N 51°07' W 004°19'1 1.4
2018-Jan-18 15:00N 51°06' W 004°19'1 1.1
2018-Jan-18 14:30N 51°06' W 004°18'1 1.1
2018-Jan-18 13:59N 51°05' W 004°18'4 8.2
2018-Jan-18 13:30N 51°05' W 004°24'4 8.1
2018-Jan-18 13:00N 51°05' W 004°30'4 7.1
2018-Jan-18 12:30N 51°05' W 004°36'3 6.1
2018-Jan-18 12:00N 51°03' W 004°39'3 6.3
2018-Jan-18 11:31N 51°01' W 004°43'4 7.0
2018-Jan-18 11:00N 50°59' W 004°48'4 7.3
2018-Jan-18 10:31N 50°57' W 004°52'4 7.8
2018-Jan-18 10:00N 50°54' W 004°57'4 8.2
2018-Jan-18 09:30N 50°52' W 005°02'4 8.6
2018-Jan-18 09:00N 50°49' W 005°08'4 8.8
2018-Jan-18 08:30N 50°46' W 005°13'4 8.8
2018-Jan-18 08:00N 50°44' W 005°19'5 9.4
2018-Jan-18 07:30N 50°41' W 005°24'5 9.7
2018-Jan-18 07:00N 50°38' W 005°30'5 9.8
2018-Jan-18 06:30N 50°35' W 005°36'510.1
2018-Jan-18 06:00N 50°31' W 005°43'610.3
2018-Jan-18 05:24N 50°28' W 005°50'  
Track history (hours):
 
Tides and Currents Weather Stations Pressure Air Temp Water Temp Dewpoint Dewpoint Depression Visibility Wind Speed Wind Dir Waves Ship Positions

Celtic Crusader

Last reported at 2018-Jan-20 19:42 UTC. Time now 2018-Jan-21 20:49 UTC.
Position N 50°25' W 005°53'.

Length 88 m; draft 4.1 m.

Type: Cargo ship. MMSI: 235097248.

Date/timePositionNaut miles runAvg speedWind from/ knotsBaromVisibWave heightAir tempDewpointWater temp
2018-Jan-20 19:42N 50°25' W 005°53'2 5.4
2018-Jan-20 19:17N 50°26' W 005°50'1 5.2
2018-Jan-20 19:00N 50°27' W 005°48'2 5.0
2018-Jan-20 18:30N 50°29' W 005°45'3 4.7
2018-Jan-20 17:58N 50°30' W 005°42'2 4.4
2018-Jan-20 17:28N 50°32' W 005°40'2 4.0
2018-Jan-20 17:00N 50°33' W 005°37'2 4.3
2018-Jan-20 16:30N 50°34' W 005°35'2 4.3
2018-Jan-20 16:00N 50°36' W 005°32'2 4.7
2018-Jan-20 15:29N 50°37' W 005°29'3 4.6
2018-Jan-20 14:49N 50°39' W 005°25'1 4.6
2018-Jan-20 14:30N 50°40' W 005°24'2 4.9
2018-Jan-20 14:00N 50°41' W 005°20'3 5.6
2018-Jan-20 13:30N 50°43' W 005°17'3 6.0
2018-Jan-20 13:00N 50°45' W 005°14'3 6.5
2018-Jan-20 12:30N 50°47' W 005°10'3 6.9
2018-Jan-20 12:00N 50°50' W 005°05'4 7.5
2018-Jan-20 11:30N 50°52' W 005°01'4 8.5
2018-Jan-20 11:00N 50°55' W 004°56'5 9.0
2018-Jan-20 10:30N 50°58' W 004°50'5 9.3
2018-Jan-20 10:00N 51°01' W 004°44'5 9.8
2018-Jan-20 09:30N 51°04' W 004°38'5 9.4
2018-Jan-20 09:00N 51°05' W 004°31'610.0
2018-Jan-20 08:24N 51°05' W 004°22'410.0
2018-Jan-20 08:00N 51°05' W 004°15'4 0.1
2018-Jan-18 17:37N 51°02' W 004°12'2 4.0
2018-Jan-18 17:13N 51°04' W 004°12'2 7.6
2018-Jan-18 16:55N 51°05' W 004°15'1 2.9
2018-Jan-18 16:29N 51°06' W 004°17'2 4.5
2018-Jan-18 16:00N 51°07' W 004°20'1 1.5
2018-Jan-18 15:29N 51°07' W 004°19'1 1.4
2018-Jan-18 15:00N 51°06' W 004°19'1 1.1
2018-Jan-18 14:30N 51°06' W 004°18'1 1.1
2018-Jan-18 13:59N 51°05' W 004°18'4 8.2
2018-Jan-18 13:30N 51°05' W 004°24'4 8.1
2018-Jan-18 13:00N 51°05' W 004°30'4 7.1
2018-Jan-18 12:30N 51°05' W 004°36'3 6.1
2018-Jan-18 12:00N 51°03' W 004°39'3 6.3
2018-Jan-18 11:31N 51°01' W 004°43'4 7.0
2018-Jan-18 11:00N 50°59' W 004°48'4 7.3
2018-Jan-18 10:31N 50°57' W 004°52'4 7.8
2018-Jan-18 10:00N 50°54' W 004°57'4 8.2
2018-Jan-18 09:30N 50°52' W 005°02'4 8.6
2018-Jan-18 09:00N 50°49' W 005°08'4 8.8
2018-Jan-18 08:30N 50°46' W 005°13'4 8.8
2018-Jan-18 08:00N 50°44' W 005°19'5 9.4
2018-Jan-18 07:30N 50°41' W 005°24'5 9.7
2018-Jan-18 07:00N 50°38' W 005°30'5 9.8
2018-Jan-18 06:30N 50°35' W 005°36'510.1
2018-Jan-18 06:00N 50°31' W 005°43'610.3
2018-Jan-18 05:24N 50°28' W 005°50'  

Dump ship's entire track history